sensor_id;sensor_type;location;lat;lon;timestamp;P1;durP1;ratioP1;P2;durP2;ratioP2
55869;SDS011;41790;50.940;4.560;2024-03-07T00:00:58;2.47;;;1.75;;
55869;SDS011;41790;50.940;4.560;2024-03-07T00:03:25;2.08;;;1.35;;
55869;SDS011;41790;50.940;4.560;2024-03-07T00:05:51;2.15;;;1.60;;
55869;SDS011;41790;50.940;4.560;2024-03-07T00:08:17;1.77;;;1.48;;
55869;SDS011;41790;50.940;4.560;2024-03-07T00:10:42;2.17;;;1.65;;
55869;SDS011;41790;50.940;4.560;2024-03-07T00:13:09;2.35;;;1.60;;
55869;SDS011;41790;50.940;4.560;2024-03-07T00:15:35;2.10;;;1.45;;
55869;SDS011;41790;50.940;4.560;2024-03-07T00:18:01;2.10;;;1.88;;
55869;SDS011;41790;50.940;4.560;2024-03-07T00:20:27;1.95;;;1.67;;
55869;SDS011;41790;50.940;4.560;2024-03-07T00:22:53;3.03;;;1.75;;
55869;SDS011;41790;50.940;4.560;2024-03-07T00:25:19;2.45;;;1.80;;
55869;SDS011;41790;50.940;4.560;2024-03-07T00:27:45;1.90;;;1.55;;
55869;SDS011;41790;50.940;4.560;2024-03-07T00:30:11;3.15;;;1.80;;
55869;SDS011;41790;50.940;4.560;2024-03-07T00:32:38;2.15;;;1.70;;
55869;SDS011;41790;50.940;4.560;2024-03-07T00:35:08;3.30;;;1.75;;
55869;SDS011;41790;50.940;4.560;2024-03-07T00:37:34;2.75;;;1.92;;
55869;SDS011;41790;50.940;4.560;2024-03-07T00:40:00;1.98;;;1.73;;
55869;SDS011;41790;50.940;4.560;2024-03-07T00:42:26;2.17;;;1.65;;
55869;SDS011;41790;50.940;4.560;2024-03-07T00:44:54;2.40;;;1.73;;
55869;SDS011;41790;50.940;4.560;2024-03-07T00:47:21;3.35;;;1.95;;
55869;SDS011;41790;50.940;4.560;2024-03-07T00:49:47;2.72;;;1.70;;
55869;SDS011;41790;50.940;4.560;2024-03-07T00:52:12;1.63;;;1.52;;
55869;SDS011;41790;50.940;4.560;2024-03-07T00:54:39;2.03;;;1.55;;
55869;SDS011;41790;50.940;4.560;2024-03-07T00:57:04;3.15;;;1.90;;
55869;SDS011;41790;50.940;4.560;2024-03-07T00:59:30;1.98;;;1.55;;
55869;SDS011;41790;50.940;4.560;2024-03-07T01:01:56;2.45;;;1.65;;
55869;SDS011;41790;50.940;4.560;2024-03-07T01:04:22;2.65;;;2.00;;
55869;SDS011;41790;50.940;4.560;2024-03-07T01:06:48;2.83;;;1.90;;
55869;SDS011;41790;50.940;4.560;2024-03-07T01:09:14;2.40;;;1.80;;
55869;SDS011;41790;50.940;4.560;2024-03-07T01:11:42;1.92;;;1.58;;
55869;SDS011;41790;50.940;4.560;2024-03-07T01:14:10;2.50;;;1.98;;
55869;SDS011;41790;50.940;4.560;2024-03-07T01:16:36;2.72;;;1.90;;
55869;SDS011;41790;50.940;4.560;2024-03-07T01:19:01;2.53;;;1.67;;
55869;SDS011;41790;50.940;4.560;2024-03-07T01:21:28;3.25;;;1.95;;
55869;SDS011;41790;50.940;4.560;2024-03-07T01:23:54;3.53;;;2.00;;
55869;SDS011;41790;50.940;4.560;2024-03-07T01:26:19;3.65;;;1.65;;
55869;SDS011;41790;50.940;4.560;2024-03-07T01:28:45;3.47;;;2.03;;
55869;SDS011;41790;50.940;4.560;2024-03-07T01:31:11;3.85;;;1.67;;
55869;SDS011;41790;50.940;4.560;2024-03-07T01:33:37;2.42;;;1.83;;
55869;SDS011;41790;50.940;4.560;2024-03-07T01:36:04;2.50;;;1.95;;
55869;SDS011;41790;50.940;4.560;2024-03-07T01:38:30;2.38;;;2.00;;
55869;SDS011;41790;50.940;4.560;2024-03-07T01:40:56;3.22;;;2.10;;
55869;SDS011;41790;50.940;4.560;2024-03-07T01:43:21;2.58;;;1.88;;
55869;SDS011;41790;50.940;4.560;2024-03-07T01:45:47;2.40;;;2.05;;
55869;SDS011;41790;50.940;4.560;2024-03-07T01:48:18;2.83;;;1.77;;
55869;SDS011;41790;50.940;4.560;2024-03-07T01:50:50;2.75;;;1.58;;
55869;SDS011;41790;50.940;4.560;2024-03-07T01:53:16;2.60;;;1.73;;
55869;SDS011;41790;50.940;4.560;2024-03-07T01:55:42;3.25;;;1.95;;
55869;SDS011;41790;50.940;4.560;2024-03-07T01:58:09;2.78;;;1.90;;
55869;SDS011;41790;50.940;4.560;2024-03-07T02:00:39;2.22;;;1.58;;
55869;SDS011;41790;50.940;4.560;2024-03-07T02:03:05;3.40;;;2.05;;
55869;SDS011;41790;50.940;4.560;2024-03-07T02:05:32;3.42;;;1.95;;
55869;SDS011;41790;50.940;4.560;2024-03-07T02:07:58;2.78;;;1.85;;
55869;SDS011;41790;50.940;4.560;2024-03-07T02:10:24;3.55;;;2.47;;
55869;SDS011;41790;50.940;4.560;2024-03-07T02:12:50;2.67;;;1.88;;
55869;SDS011;41790;50.940;4.560;2024-03-07T02:15:16;2.90;;;2.13;;
55869;SDS011;41790;50.940;4.560;2024-03-07T02:17:42;3.40;;;2.25;;
55869;SDS011;41790;50.940;4.560;2024-03-07T02:20:08;2.88;;;1.77;;
55869;SDS011;41790;50.940;4.560;2024-03-07T02:22:36;3.15;;;2.25;;
55869;SDS011;41790;50.940;4.560;2024-03-07T02:25:02;2.75;;;1.95;;
55869;SDS011;41790;50.940;4.560;2024-03-07T02:27:28;2.97;;;2.13;;
55869;SDS011;41790;50.940;4.560;2024-03-07T02:29:54;3.50;;;2.33;;
55869;SDS011;41790;50.940;4.560;2024-03-07T02:32:20;2.55;;;1.85;;
55869;SDS011;41790;50.940;4.560;2024-03-07T02:34:46;3.60;;;2.17;;
55869;SDS011;41790;50.940;4.560;2024-03-07T02:37:12;3.30;;;1.83;;
55869;SDS011;41790;50.940;4.560;2024-03-07T02:39:38;3.88;;;2.13;;
55869;SDS011;41790;50.940;4.560;2024-03-07T02:42:04;3.83;;;2.25;;
55869;SDS011;41790;50.940;4.560;2024-03-07T02:44:31;3.63;;;2.03;;
55869;SDS011;41790;50.940;4.560;2024-03-07T02:46:57;3.72;;;2.05;;
55869;SDS011;41790;50.940;4.560;2024-03-07T02:49:23;4.10;;;2.22;;
55869;SDS011;41790;50.940;4.560;2024-03-07T02:51:49;3.78;;;2.13;;
55869;SDS011;41790;50.940;4.560;2024-03-07T02:54:15;3.55;;;2.15;;
55869;SDS011;41790;50.940;4.560;2024-03-07T02:56:40;3.17;;;2.25;;
55869;SDS011;41790;50.940;4.560;2024-03-07T02:59:06;3.33;;;2.17;;
55869;SDS011;41790;50.940;4.560;2024-03-07T03:01:32;3.45;;;2.17;;
55869;SDS011;41790;50.940;4.560;2024-03-07T03:03:58;3.03;;;2.00;;
55869;SDS011;41790;50.940;4.560;2024-03-07T03:06:24;3.13;;;2.15;;
55869;SDS011;41790;50.940;4.560;2024-03-07T03:08:50;2.70;;;2.05;;
55869;SDS011;41790;50.940;4.560;2024-03-07T03:11:15;3.95;;;2.45;;
55869;SDS011;41790;50.940;4.560;2024-03-07T03:13:41;4.40;;;2.35;;
55869;SDS011;41790;50.940;4.560;2024-03-07T03:16:07;2.85;;;2.10;;
55869;SDS011;41790;50.940;4.560;2024-03-07T03:18:34;3.75;;;2.33;;
55869;SDS011;41790;50.940;4.560;2024-03-07T03:21:00;5.13;;;2.65;;
55869;SDS011;41790;50.940;4.560;2024-03-07T03:23:27;4.47;;;2.05;;
55869;SDS011;41790;50.940;4.560;2024-03-07T03:25:53;4.93;;;2.05;;
55869;SDS011;41790;50.940;4.560;2024-03-07T03:28:20;4.47;;;2.28;;
55869;SDS011;41790;50.940;4.560;2024-03-07T03:30:47;2.95;;;2.15;;
55869;SDS011;41790;50.940;4.560;2024-03-07T03:33:13;3.38;;;2.38;;
55869;SDS011;41790;50.940;4.560;2024-03-07T03:35:40;3.58;;;2.45;;
55869;SDS011;41790;50.940;4.560;2024-03-07T03:38:06;3.47;;;2.17;;
55869;SDS011;41790;50.940;4.560;2024-03-07T03:40:32;3.85;;;2.15;;
55869;SDS011;41790;50.940;4.560;2024-03-07T03:42:59;4.40;;;2.70;;
55869;SDS011;41790;50.940;4.560;2024-03-07T03:45:26;4.75;;;2.58;;
55869;SDS011;41790;50.940;4.560;2024-03-07T03:47:52;3.72;;;2.20;;
55869;SDS011;41790;50.940;4.560;2024-03-07T03:50:18;5.63;;;2.65;;
55869;SDS011;41790;50.940;4.560;2024-03-07T03:52:44;4.10;;;2.70;;
55869;SDS011;41790;50.940;4.560;2024-03-07T03:55:10;3.63;;;2.28;;
55869;SDS011;41790;50.940;4.560;2024-03-07T03:57:40;3.63;;;2.10;;
55869;SDS011;41790;50.940;4.560;2024-03-07T04:00:10;5.18;;;2.47;;
55869;SDS011;41790;50.940;4.560;2024-03-07T04:02:46;4.80;;;2.72;;
55869;SDS011;41790;50.940;4.560;2024-03-07T04:05:13;3.20;;;1.98;;
55869;SDS011;41790;50.940;4.560;2024-03-07T04:07:39;5.18;;;2.25;;
55869;SDS011;41790;50.940;4.560;2024-03-07T04:10:07;3.88;;;2.35;;
55869;SDS011;41790;50.940;4.560;2024-03-07T04:12:36;4.65;;;2.28;;
55869;SDS011;41790;50.940;4.560;2024-03-07T04:15:07;5.43;;;2.35;;
55869;SDS011;41790;50.940;4.560;2024-03-07T04:17:36;5.05;;;2.97;;
55869;SDS011;41790;50.940;4.560;2024-03-07T04:20:03;3.85;;;2.28;;
55869;SDS011;41790;50.940;4.560;2024-03-07T04:22:31;4.45;;;2.78;;
55869;SDS011;41790;50.940;4.560;2024-03-07T04:24:57;3.85;;;2.53;;
55869;SDS011;41790;50.940;4.560;2024-03-07T04:27:23;3.70;;;2.38;;
55869;SDS011;41790;50.940;4.560;2024-03-07T04:29:51;4.55;;;2.60;;
55869;SDS011;41790;50.940;4.560;2024-03-07T04:32:17;4.13;;;2.30;;
55869;SDS011;41790;50.940;4.560;2024-03-07T04:34:43;5.07;;;2.45;;
55869;SDS011;41790;50.940;4.560;2024-03-07T04:37:09;4.50;;;2.45;;
55869;SDS011;41790;50.940;4.560;2024-03-07T04:39:35;3.10;;;2.05;;
55869;SDS011;41790;50.940;4.560;2024-03-07T04:42:01;4.15;;;2.58;;
55869;SDS011;41790;50.940;4.560;2024-03-07T04:44:31;3.70;;;2.50;;
55869;SDS011;41790;50.940;4.560;2024-03-07T04:46:58;4.65;;;2.35;;
55869;SDS011;41790;50.940;4.560;2024-03-07T04:49:25;3.53;;;2.60;;
55869;SDS011;41790;50.940;4.560;2024-03-07T04:51:52;5.03;;;2.67;;
55869;SDS011;41790;50.940;4.560;2024-03-07T04:54:20;4.43;;;2.63;;
55869;SDS011;41790;50.940;4.560;2024-03-07T04:56:47;3.60;;;2.35;;
55869;SDS011;41790;50.940;4.560;2024-03-07T04:59:14;4.07;;;2.42;;
55869;SDS011;41790;50.940;4.560;2024-03-07T05:01:41;4.63;;;2.70;;
55869;SDS011;41790;50.940;4.560;2024-03-07T05:04:08;5.03;;;3.03;;
55869;SDS011;41790;50.940;4.560;2024-03-07T05:06:34;4.18;;;2.42;;
55869;SDS011;41790;50.940;4.560;2024-03-07T05:09:00;4.38;;;2.58;;
55869;SDS011;41790;50.940;4.560;2024-03-07T05:11:30;5.78;;;2.92;;
55869;SDS011;41790;50.940;4.560;2024-03-07T05:13:57;4.80;;;2.30;;
55869;SDS011;41790;50.940;4.560;2024-03-07T05:16:23;4.53;;;2.63;;
55869;SDS011;41790;50.940;4.560;2024-03-07T05:18:50;4.40;;;2.78;;
55869;SDS011;41790;50.940;4.560;2024-03-07T05:21:17;4.10;;;2.78;;
55869;SDS011;41790;50.940;4.560;2024-03-07T05:23:59;3.65;;;2.58;;
55869;SDS011;41790;50.940;4.560;2024-03-07T05:26:29;3.80;;;2.80;;
55869;SDS011;41790;50.940;4.560;2024-03-07T05:29:08;4.85;;;3.08;;
55869;SDS011;41790;50.940;4.560;2024-03-07T05:31:35;3.78;;;2.28;;
55869;SDS011;41790;50.940;4.560;2024-03-07T05:34:09;5.28;;;2.75;;
55869;SDS011;41790;50.940;4.560;2024-03-07T05:36:35;5.63;;;2.65;;
55869;SDS011;41790;50.940;4.560;2024-03-07T05:39:01;3.22;;;2.40;;
55869;SDS011;41790;50.940;4.560;2024-03-07T05:41:36;5.93;;;2.47;;
55869;SDS011;41790;50.940;4.560;2024-03-07T05:44:05;4.18;;;2.53;;
55869;SDS011;41790;50.940;4.560;2024-03-07T05:46:38;5.38;;;3.22;;
55869;SDS011;41790;50.940;4.560;2024-03-07T05:49:13;5.50;;;2.92;;
55869;SDS011;41790;50.940;4.560;2024-03-07T05:51:39;6.47;;;2.83;;
55869;SDS011;41790;50.940;4.560;2024-03-07T05:54:10;5.10;;;2.50;;
55869;SDS011;41790;50.940;4.560;2024-03-07T05:56:39;5.03;;;2.80;;
55869;SDS011;41790;50.940;4.560;2024-03-07T05:59:06;3.30;;;2.45;;
55869;SDS011;41790;50.940;4.560;2024-03-07T06:01:34;5.57;;;2.97;;
55869;SDS011;41790;50.940;4.560;2024-03-07T06:04:00;4.65;;;2.72;;
55869;SDS011;41790;50.940;4.560;2024-03-07T06:06:27;4.43;;;2.67;;
55869;SDS011;41790;50.940;4.560;2024-03-07T06:08:57;5.45;;;2.85;;
55869;SDS011;41790;50.940;4.560;2024-03-07T06:11:23;4.43;;;2.65;;
55869;SDS011;41790;50.940;4.560;2024-03-07T06:13:49;6.10;;;2.95;;
55869;SDS011;41790;50.940;4.560;2024-03-07T06:16:15;4.43;;;2.78;;
55869;SDS011;41790;50.940;4.560;2024-03-07T06:18:41;4.80;;;2.78;;
55869;SDS011;41790;50.940;4.560;2024-03-07T06:21:07;5.72;;;3.03;;
55869;SDS011;41790;50.940;4.560;2024-03-07T06:23:34;5.53;;;2.80;;
55869;SDS011;41790;50.940;4.560;2024-03-07T06:26:00;4.13;;;2.70;;
55869;SDS011;41790;50.940;4.560;2024-03-07T06:28:26;4.00;;;2.30;;
55869;SDS011;41790;50.940;4.560;2024-03-07T06:30:55;3.83;;;2.40;;
55869;SDS011;41790;50.940;4.560;2024-03-07T06:33:20;9.10;;;4.97;;
55869;SDS011;41790;50.940;4.560;2024-03-07T06:35:47;14.40;;;6.60;;
55869;SDS011;41790;50.940;4.560;2024-03-07T06:38:13;18.42;;;7.97;;
55869;SDS011;41790;50.940;4.560;2024-03-07T06:40:39;20.30;;;8.88;;
55869;SDS011;41790;50.940;4.560;2024-03-07T06:43:07;21.55;;;8.15;;
55869;SDS011;41790;50.940;4.560;2024-03-07T06:45:38;17.10;;;7.68;;
55869;SDS011;41790;50.940;4.560;2024-03-07T06:48:05;16.80;;;8.15;;
55869;SDS011;41790;50.940;4.560;2024-03-07T06:50:35;20.20;;;8.32;;
55869;SDS011;41790;50.940;4.560;2024-03-07T06:53:04;20.33;;;8.38;;
55869;SDS011;41790;50.940;4.560;2024-03-07T06:55:32;16.90;;;8.00;;
55869;SDS011;41790;50.940;4.560;2024-03-07T06:57:59;26.85;;;8.88;;
55869;SDS011;41790;50.940;4.560;2024-03-07T07:00:25;16.25;;;7.28;;
55869;SDS011;41790;50.940;4.560;2024-03-07T07:02:51;21.23;;;9.02;;
55869;SDS011;41790;50.940;4.560;2024-03-07T07:05:21;19.50;;;8.52;;
55869;SDS011;41790;50.940;4.560;2024-03-07T07:07:47;20.55;;;7.68;;
55869;SDS011;41790;50.940;4.560;2024-03-07T07:10:13;19.55;;;8.20;;
55869;SDS011;41790;50.940;4.560;2024-03-07T07:12:48;15.02;;;7.13;;
55869;SDS011;41790;50.940;4.560;2024-03-07T07:15:15;19.77;;;7.97;;
55869;SDS011;41790;50.940;4.560;2024-03-07T07:17:43;19.45;;;8.63;;
55869;SDS011;41790;50.940;4.560;2024-03-07T07:20:12;23.52;;;8.80;;
55869;SDS011;41790;50.940;4.560;2024-03-07T07:22:41;20.35;;;9.23;;
55869;SDS011;41790;50.940;4.560;2024-03-07T07:25:07;19.23;;;7.55;;
55869;SDS011;41790;50.940;4.560;2024-03-07T07:27:46;19.58;;;7.97;;
55869;SDS011;41790;50.940;4.560;2024-03-07T07:30:14;18.08;;;7.38;;
55869;SDS011;41790;50.940;4.560;2024-03-07T07:32:41;16.98;;;7.97;;
55869;SDS011;41790;50.940;4.560;2024-03-07T07:35:08;22.60;;;9.60;;
55869;SDS011;41790;50.940;4.560;2024-03-07T07:37:39;21.15;;;7.93;;
55869;SDS011;41790;50.940;4.560;2024-03-07T07:40:10;23.88;;;9.88;;
55869;SDS011;41790;50.940;4.560;2024-03-07T07:42:39;20.67;;;9.43;;
55869;SDS011;41790;50.940;4.560;2024-03-07T07:45:07;23.13;;;9.88;;
55869;SDS011;41790;50.940;4.560;2024-03-07T07:47:38;23.88;;;9.18;;
55869;SDS011;41790;50.940;4.560;2024-03-07T07:50:06;20.48;;;9.00;;
55869;SDS011;41790;50.940;4.560;2024-03-07T07:52:49;24.85;;;9.10;;
55869;SDS011;41790;50.940;4.560;2024-03-07T07:55:20;21.13;;;9.50;;
55869;SDS011;41790;50.940;4.560;2024-03-07T07:57:47;24.33;;;8.82;;
55869;SDS011;41790;50.940;4.560;2024-03-07T08:00:20;26.42;;;9.50;;
55869;SDS011;41790;50.940;4.560;2024-03-07T08:03:06;22.92;;;9.63;;
55869;SDS011;41790;50.940;4.560;2024-03-07T08:05:35;18.40;;;7.65;;
55869;SDS011;41790;50.940;4.560;2024-03-07T08:08:03;23.45;;;9.18;;
55869;SDS011;41790;50.940;4.560;2024-03-07T08:10:31;23.15;;;9.65;;
55869;SDS011;41790;50.940;4.560;2024-03-07T08:12:58;19.83;;;8.57;;
55869;SDS011;41790;50.940;4.560;2024-03-07T08:15:26;22.27;;;8.80;;
55869;SDS011;41790;50.940;4.560;2024-03-07T08:17:56;20.23;;;9.35;;
55869;SDS011;41790;50.940;4.560;2024-03-07T08:20:22;22.17;;;10.40;;
55869;SDS011;41790;50.940;4.560;2024-03-07T08:22:51;21.20;;;8.70;;
55869;SDS011;41790;50.940;4.560;2024-03-07T08:25:18;20.75;;;8.48;;
55869;SDS011;41790;50.940;4.560;2024-03-07T08:27:46;18.83;;;9.25;;
55869;SDS011;41790;50.940;4.560;2024-03-07T08:30:13;19.70;;;8.95;;
55869;SDS011;41790;50.940;4.560;2024-03-07T08:32:43;17.88;;;8.32;;
55869;SDS011;41790;50.940;4.560;2024-03-07T08:35:10;19.15;;;8.35;;
55869;SDS011;41790;50.940;4.560;2024-03-07T08:37:40;17.58;;;7.20;;
55869;SDS011;41790;50.940;4.560;2024-03-07T08:40:19;16.70;;;7.32;;
55869;SDS011;41790;50.940;4.560;2024-03-07T08:42:46;19.58;;;8.63;;
55869;SDS011;41790;50.940;4.560;2024-03-07T08:45:13;20.20;;;8.40;;
55869;SDS011;41790;50.940;4.560;2024-03-07T08:47:44;18.77;;;8.20;;
55869;SDS011;41790;50.940;4.560;2024-03-07T08:50:11;16.65;;;7.22;;
55869;SDS011;41790;50.940;4.560;2024-03-07T08:52:39;22.92;;;9.27;;
55869;SDS011;41790;50.940;4.560;2024-03-07T08:55:05;18.42;;;7.40;;
55869;SDS011;41790;50.940;4.560;2024-03-07T08:57:35;18.67;;;8.13;;
55869;SDS011;41790;50.940;4.560;2024-03-07T09:00:04;20.50;;;7.72;;
55869;SDS011;41790;50.940;4.560;2024-03-07T09:02:36;19.02;;;7.78;;
55869;SDS011;41790;50.940;4.560;2024-03-07T09:05:03;16.05;;;7.22;;
55869;SDS011;41790;50.940;4.560;2024-03-07T09:07:30;22.55;;;8.63;;
55869;SDS011;41790;50.940;4.560;2024-03-07T09:09:56;19.08;;;7.65;;
55869;SDS011;41790;50.940;4.560;2024-03-07T09:12:22;16.05;;;7.38;;
55869;SDS011;41790;50.940;4.560;2024-03-07T09:14:50;18.42;;;7.78;;
55869;SDS011;41790;50.940;4.560;2024-03-07T09:17:19;17.67;;;7.03;;
55869;SDS011;41790;50.940;4.560;2024-03-07T09:19:45;17.02;;;7.28;;
55869;SDS011;41790;50.940;4.560;2024-03-07T09:22:11;18.35;;;8.07;;
55869;SDS011;41790;50.940;4.560;2024-03-07T09:24:37;14.50;;;7.40;;
55869;SDS011;41790;50.940;4.560;2024-03-07T09:27:03;17.35;;;7.93;;
55869;SDS011;41790;50.940;4.560;2024-03-07T09:29:29;17.08;;;7.78;;
55869;SDS011;41790;50.940;4.560;2024-03-07T09:31:55;18.05;;;7.40;;
55869;SDS011;41790;50.940;4.560;2024-03-07T09:34:22;16.70;;;7.13;;
55869;SDS011;41790;50.940;4.560;2024-03-07T09:36:49;14.18;;;7.05;;
55869;SDS011;41790;50.940;4.560;2024-03-07T09:39:15;17.25;;;7.63;;
55869;SDS011;41790;50.940;4.560;2024-03-07T09:41:41;20.30;;;7.40;;
55869;SDS011;41790;50.940;4.560;2024-03-07T09:44:17;17.75;;;7.78;;
55869;SDS011;41790;50.940;4.560;2024-03-07T09:46:49;18.30;;;7.28;;
55869;SDS011;41790;50.940;4.560;2024-03-07T09:49:17;19.60;;;6.93;;
55869;SDS011;41790;50.940;4.560;2024-03-07T09:51:44;21.40;;;7.50;;
55869;SDS011;41790;50.940;4.560;2024-03-07T09:54:10;18.23;;;7.22;;
55869;SDS011;41790;50.940;4.560;2024-03-07T09:56:38;16.08;;;6.50;;
55869;SDS011;41790;50.940;4.560;2024-03-07T09:59:06;16.75;;;7.03;;
55869;SDS011;41790;50.940;4.560;2024-03-07T10:01:36;17.13;;;7.25;;
55869;SDS011;41790;50.940;4.560;2024-03-07T10:04:05;14.75;;;7.18;;
55869;SDS011;41790;50.940;4.560;2024-03-07T10:06:42;16.27;;;6.80;;
55869;SDS011;41790;50.940;4.560;2024-03-07T10:09:12;17.17;;;6.55;;
55869;SDS011;41790;50.940;4.560;2024-03-07T10:11:39;12.68;;;6.03;;
55869;SDS011;41790;50.940;4.560;2024-03-07T10:14:06;14.82;;;7.40;;
55869;SDS011;41790;50.940;4.560;2024-03-07T10:16:32;14.15;;;6.55;;
55869;SDS011;41790;50.940;4.560;2024-03-07T10:18:58;17.75;;;7.18;;
55869;SDS011;41790;50.940;4.560;2024-03-07T10:21:27;14.15;;;6.80;;
55869;SDS011;41790;50.940;4.560;2024-03-07T10:24:04;15.05;;;6.30;;
55869;SDS011;41790;50.940;4.560;2024-03-07T10:26:33;11.45;;;5.93;;
55869;SDS011;41790;50.940;4.560;2024-03-07T10:29:00;17.83;;;6.57;;
55869;SDS011;41790;50.940;4.560;2024-03-07T10:31:29;13.73;;;5.80;;
55869;SDS011;41790;50.940;4.560;2024-03-07T10:34:00;14.77;;;6.72;;
55869;SDS011;41790;50.940;4.560;2024-03-07T10:36:27;10.55;;;5.38;;
55869;SDS011;41790;50.940;4.560;2024-03-07T10:38:59;14.38;;;6.65;;
55869;SDS011;41790;50.940;4.560;2024-03-07T10:41:29;13.32;;;5.85;;
55869;SDS011;41790;50.940;4.560;2024-03-07T10:44:01;12.18;;;5.72;;
55869;SDS011;41790;50.940;4.560;2024-03-07T10:46:31;15.65;;;7.00;;
55869;SDS011;41790;50.940;4.560;2024-03-07T10:48:57;13.25;;;5.95;;
55869;SDS011;41790;50.940;4.560;2024-03-07T10:51:33;12.10;;;6.18;;
55869;SDS011;41790;50.940;4.560;2024-03-07T10:57:23;11.77;;;5.78;;
55869;SDS011;41790;50.940;4.560;2024-03-07T11:00:03;14.88;;;5.97;;
55869;SDS011;41790;50.940;4.560;2024-03-07T11:02:52;14.73;;;5.45;;
55869;SDS011;41790;50.940;4.560;2024-03-07T11:05:20;12.07;;;6.13;;
55869;SDS011;41790;50.940;4.560;2024-03-07T11:07:49;13.85;;;6.55;;
55869;SDS011;41790;50.940;4.560;2024-03-07T11:10:17;14.65;;;5.25;;
55869;SDS011;41790;50.940;4.560;2024-03-07T11:12:45;10.38;;;5.50;;
55869;SDS011;41790;50.940;4.560;2024-03-07T11:15:16;10.90;;;5.43;;
55869;SDS011;41790;50.940;4.560;2024-03-07T11:17:45;12.00;;;5.25;;
55869;SDS011;41790;50.940;4.560;2024-03-07T11:20:22;13.82;;;5.85;;
55869;SDS011;41790;50.940;4.560;2024-03-07T11:22:49;14.00;;;5.65;;
55869;SDS011;41790;50.940;4.560;2024-03-07T11:25:19;15.38;;;6.80;;
55869;SDS011;41790;50.940;4.560;2024-03-07T11:27:54;12.07;;;5.57;;
55869;SDS011;41790;50.940;4.560;2024-03-07T11:30:23;10.73;;;5.25;;
55869;SDS011;41790;50.940;4.560;2024-03-07T11:32:50;10.63;;;5.50;;
55869;SDS011;41790;50.940;4.560;2024-03-07T11:35:42;12.30;;;5.97;;
55869;SDS011;41790;50.940;4.560;2024-03-07T11:38:14;10.20;;;5.18;;
55869;SDS011;41790;50.940;4.560;2024-03-07T11:43:05;12.43;;;5.80;;
55869;SDS011;41790;50.940;4.560;2024-03-07T11:45:31;11.43;;;5.75;;
55869;SDS011;41790;50.940;4.560;2024-03-07T11:48:10;11.73;;;5.05;;
55869;SDS011;41790;50.940;4.560;2024-03-07T11:50:36;13.55;;;5.75;;
55869;SDS011;41790;50.940;4.560;2024-03-07T11:53:03;11.55;;;5.50;;
55869;SDS011;41790;50.940;4.560;2024-03-07T11:55:33;11.38;;;5.57;;
55869;SDS011;41790;50.940;4.560;2024-03-07T11:58:20;12.43;;;5.03;;
55869;SDS011;41790;50.940;4.560;2024-03-07T12:00:47;13.23;;;5.82;;
55869;SDS011;41790;50.940;4.560;2024-03-07T12:03:14;12.50;;;6.05;;
55869;SDS011;41790;50.940;4.560;2024-03-07T12:05:46;12.32;;;5.65;;
55869;SDS011;41790;50.940;4.560;2024-03-07T12:08:12;10.77;;;5.25;;
55869;SDS011;41790;50.940;4.560;2024-03-07T12:10:39;15.50;;;6.38;;
55869;SDS011;41790;50.940;4.560;2024-03-07T12:13:09;11.10;;;4.63;;
55869;SDS011;41790;50.940;4.560;2024-03-07T12:15:36;10.43;;;5.38;;
55869;SDS011;41790;50.940;4.560;2024-03-07T12:18:04;9.70;;;4.68;;
55869;SDS011;41790;50.940;4.560;2024-03-07T12:20:38;10.85;;;5.43;;
55869;SDS011;41790;50.940;4.560;2024-03-07T12:23:06;12.50;;;5.72;;
55869;SDS011;41790;50.940;4.560;2024-03-07T12:25:37;8.90;;;4.47;;
55869;SDS011;41790;50.940;4.560;2024-03-07T12:28:10;13.43;;;5.38;;
55869;SDS011;41790;50.940;4.560;2024-03-07T12:33:16;9.40;;;4.72;;
55869;SDS011;41790;50.940;4.560;2024-03-07T12:35:50;9.88;;;4.68;;
55869;SDS011;41790;50.940;4.560;2024-03-07T12:38:18;12.65;;;5.22;;
55869;SDS011;41790;50.940;4.560;2024-03-07T12:41:01;11.23;;;4.95;;
55869;SDS011;41790;50.940;4.560;2024-03-07T12:43:31;11.48;;;5.35;;
55869;SDS011;41790;50.940;4.560;2024-03-07T12:45:57;10.35;;;5.00;;
55869;SDS011;41790;50.940;4.560;2024-03-07T12:48:24;9.27;;;5.20;;
55869;SDS011;41790;50.940;4.560;2024-03-07T12:50:50;9.57;;;4.72;;
55869;SDS011;41790;50.940;4.560;2024-03-07T12:53:22;10.95;;;4.72;;
55869;SDS011;41790;50.940;4.560;2024-03-07T12:55:50;10.05;;;4.72;;
55869;SDS011;41790;50.940;4.560;2024-03-07T12:58:17;10.32;;;5.10;;
55869;SDS011;41790;50.940;4.560;2024-03-07T13:00:45;9.63;;;4.53;;
55869;SDS011;41790;50.940;4.560;2024-03-07T13:03:13;9.80;;;5.45;;
55869;SDS011;41790;50.940;4.560;2024-03-07T13:05:41;9.25;;;5.00;;
55869;SDS011;41790;50.940;4.560;2024-03-07T13:08:08;8.88;;;4.57;;
55869;SDS011;41790;50.940;4.560;2024-03-07T13:10:38;9.20;;;4.07;;
55869;SDS011;41790;50.940;4.560;2024-03-07T13:13:07;10.13;;;4.88;;
55869;SDS011;41790;50.940;4.560;2024-03-07T13:15:36;10.20;;;4.68;;
55869;SDS011;41790;50.940;4.560;2024-03-07T13:18:03;10.68;;;4.90;;
55869;SDS011;41790;50.940;4.560;2024-03-07T13:20:34;11.15;;;4.82;;
55869;SDS011;41790;50.940;4.560;2024-03-07T13:23:01;9.15;;;4.30;;
55869;SDS011;41790;50.940;4.560;2024-03-07T13:25:28;9.57;;;4.88;;
55869;SDS011;41790;50.940;4.560;2024-03-07T13:30:38;10.30;;;5.05;;
55869;SDS011;41790;50.940;4.560;2024-03-07T13:33:05;8.77;;;4.38;;
55869;SDS011;41790;50.940;4.560;2024-03-07T13:35:31;8.68;;;4.43;;
55869;SDS011;41790;50.940;4.560;2024-03-07T13:37:58;8.38;;;4.07;;
55869;SDS011;41790;50.940;4.560;2024-03-07T13:40:25;11.05;;;4.22;;
55869;SDS011;41790;50.940;4.560;2024-03-07T13:42:52;9.27;;;4.22;;
55869;SDS011;41790;50.940;4.560;2024-03-07T13:45:35;8.80;;;3.78;;
55869;SDS011;41790;50.940;4.560;2024-03-07T13:48:05;7.65;;;4.05;;
55869;SDS011;41790;50.940;4.560;2024-03-07T13:50:32;8.15;;;4.05;;
55869;SDS011;41790;50.940;4.560;2024-03-07T13:52:59;8.18;;;3.95;;
55869;SDS011;41790;50.940;4.560;2024-03-07T13:59:20;7.47;;;3.30;;
55869;SDS011;41790;50.940;4.560;2024-03-07T14:22:22;7.07;;;3.22;;
55869;SDS011;41790;50.940;4.560;2024-03-07T14:30:49;7.10;;;3.72;;
55869;SDS011;41790;50.940;4.560;2024-03-07T14:33:28;8.48;;;3.53;;
55869;SDS011;41790;50.940;4.560;2024-03-07T14:38:52;5.50;;;3.33;;
55869;SDS011;41790;50.940;4.560;2024-03-07T14:41:20;8.82;;;3.38;;
55869;SDS011;41790;50.940;4.560;2024-03-07T14:44:04;4.35;;;2.75;;
55869;SDS011;41790;50.940;4.560;2024-03-07T14:46:32;6.18;;;3.47;;
55869;SDS011;41790;50.940;4.560;2024-03-07T14:49:00;6.07;;;3.25;;
55869;SDS011;41790;50.940;4.560;2024-03-07T14:51:26;6.88;;;3.70;;
55869;SDS011;41790;50.940;4.560;2024-03-07T14:53:52;6.60;;;3.33;;
55869;SDS011;41790;50.940;4.560;2024-03-07T14:56:18;5.47;;;3.22;;
55869;SDS011;41790;50.940;4.560;2024-03-07T14:58:45;4.70;;;2.97;;
55869;SDS011;41790;50.940;4.560;2024-03-07T15:01:12;6.22;;;3.22;;
55869;SDS011;41790;50.940;4.560;2024-03-07T15:03:38;5.00;;;3.47;;
55869;SDS011;41790;50.940;4.560;2024-03-07T15:06:08;5.85;;;3.75;;
55869;SDS011;41790;50.940;4.560;2024-03-07T15:08:34;4.95;;;2.88;;
55869;SDS011;41790;50.940;4.560;2024-03-07T15:11:06;7.13;;;3.53;;
55869;SDS011;41790;50.940;4.560;2024-03-07T15:13:38;4.70;;;2.78;;
55869;SDS011;41790;50.940;4.560;2024-03-07T15:16:04;7.85;;;3.05;;
55869;SDS011;41790;50.940;4.560;2024-03-07T15:18:31;5.15;;;2.97;;
55869;SDS011;41790;50.940;4.560;2024-03-07T15:20:57;7.03;;;3.30;;
55869;SDS011;41790;50.940;4.560;2024-03-07T15:23:23;5.38;;;2.63;;
55869;SDS011;41790;50.940;4.560;2024-03-07T15:25:48;4.93;;;3.13;;
55869;SDS011;41790;50.940;4.560;2024-03-07T15:28:14;7.65;;;3.47;;
55869;SDS011;41790;50.940;4.560;2024-03-07T15:30:40;8.63;;;4.68;;
55869;SDS011;41790;50.940;4.560;2024-03-07T15:33:07;10.20;;;5.05;;